メインページ
METAR-TAF:

METAR-TAF

空港 :

レオポール・セダール・サンゴール国際空港

ダカール, セネガル

緯度: 14-44N, 経度: 017-30W, 海抜: 27m

現時点の気象観測

当レポートは49分前の07:00(UTC)に作成
西/南西の風 6kt
気温 26°C
湿度 74%
気圧 1012 hPa
視程: 8000m
高度1300ftの雲はほとんどない

METAR: GOOY 170700Z 24006KT 8000 FEW013 26/21 Q1012 NOSIG

時間: 07:49 (07:49 UTC)

予報

当レポートは2時間19分前の05:30(UTC)に作成
予報は17日の 06時(UTC)から 18日の 12時(UTC)まで有効
南西の風 10kt
視程: 8000m
高度1300ftの雲は散在している

TAF: GOOY 170530Z 1706/1812 22010KT 8000 SCT013

4,000以上の空港の気象観測と天気予報(METAR報とTAF報)

利用可能な観測所は地図上に黄色い丸と赤い丸で示す。

丸の上にカーソルを重ねると観測所名を参照できる。

次にクリックすると気象観測と天気予報を参照できる。

マップの切り替え:黒色「×」印の緑ボタンをクリックして拡大、「-」印の緑ボタンをクリックして縮小、緑色の三角印をクリックして隣りの地図に切り替え


METAR-TAF: